createdAt,value
2019-06-07T00:01:33.160Z,16.21
2019-06-07T00:03:59.150Z,16.26
2019-06-07T00:06:26.040Z,16.24
2019-06-07T00:08:52.166Z,16.16
2019-06-07T00:11:20.584Z,16.17
2019-06-07T00:13:46.149Z,16.19
2019-06-07T00:16:14.946Z,16.03
2019-06-07T00:18:40.067Z,16.11
2019-06-07T00:21:06.038Z,16.08
2019-06-07T00:23:32.103Z,16.26
2019-06-07T00:25:58.149Z,16.35
2019-06-07T00:28:24.188Z,16.27
2019-06-07T00:30:52.225Z,16.21
2019-06-07T00:33:23.345Z,16.21
2019-06-07T00:35:45.965Z,16.04
2019-06-07T00:38:11.970Z,16.07
2019-06-07T00:40:38.056Z,16.05
2019-06-07T00:43:04.059Z,16.01
2019-06-07T00:45:30.178Z,16.07
2019-06-07T00:47:56.269Z,15.87
2019-06-07T00:50:24.120Z,15.98
2019-06-07T00:55:20.063Z,16.08
2019-06-07T00:57:46.305Z,16.02
2019-06-07T01:00:15.037Z,16.07
2019-06-07T01:02:42.298Z,16.10
2019-06-07T01:05:08.428Z,16.11
2019-06-07T01:07:34.452Z,16.13
2019-06-07T01:10:01.098Z,15.97
2019-06-07T01:12:27.307Z,16.01
2019-06-07T01:14:53.505Z,15.87
2019-06-07T01:17:36.294Z,15.85
2019-06-07T01:19:51.157Z,15.81
2019-06-07T01:22:18.405Z,15.76
2019-06-07T01:24:45.075Z,15.82
2019-06-07T01:27:11.092Z,15.87
2019-06-07T01:29:37.177Z,15.87
2019-06-07T01:32:03.232Z,15.78
2019-06-07T01:34:29.240Z,15.76
2019-06-07T01:36:55.223Z,15.96
2019-06-07T01:39:23.975Z,15.90
2019-06-07T01:41:49.150Z,15.97
2019-06-07T01:44:15.144Z,15.95
2019-06-07T01:46:41.162Z,15.83
2019-06-07T01:49:07.171Z,15.77
2019-06-07T01:51:33.210Z,15.83
2019-06-07T01:54:48.532Z,15.88
2019-06-07T01:56:29.832Z,15.73
2019-06-07T01:58:56.628Z,15.75
2019-06-07T02:01:23.896Z,15.57
2019-06-07T02:03:51.791Z,15.57
2019-06-07T02:06:21.044Z,15.56
2019-06-07T02:08:49.364Z,15.59
2019-06-07T02:11:18.071Z,15.42
2019-06-07T02:13:45.505Z,15.45
2019-06-07T02:16:12.508Z,15.28
2019-06-07T02:19:00.620Z,15.40
2019-06-07T02:21:08.038Z,15.24
2019-06-07T02:23:35.567Z,15.28
2019-06-07T02:26:03.862Z,15.26
2019-06-07T02:28:44.650Z,15.21
2019-06-07T02:31:00.556Z,15.25
2019-06-07T02:33:31.174Z,15.31
2019-06-07T02:35:56.059Z,15.36
2019-06-07T02:38:27.035Z,15.32
2019-06-07T02:40:52.655Z,15.43
2019-06-07T02:43:19.719Z,15.28
2019-06-07T02:45:46.947Z,15.29
2019-06-07T02:48:13.545Z,15.37
2019-06-07T02:50:40.715Z,15.42
2019-06-07T02:53:06.825Z,15.46
2019-06-07T02:55:45.824Z,15.38
2019-06-07T02:58:00.800Z,15.37
2019-06-07T03:01:05.510Z,15.44
2019-06-07T03:03:15.383Z,15.39
2019-06-07T03:05:42.246Z,15.25
2019-06-07T03:08:10.923Z,15.41
2019-06-07T03:10:41.594Z,15.58
2019-06-07T03:13:06.139Z,15.48
2019-06-07T03:15:42.830Z,15.56
2019-06-07T03:18:09.282Z,15.59
2019-06-07T03:20:37.223Z,15.56
2019-06-07T03:23:05.425Z,15.47
2019-06-07T03:25:37.394Z,15.54
2019-06-07T03:28:05.468Z,15.57
2019-06-07T03:30:52.250Z,15.47
2019-06-07T03:32:59.401Z,15.66
2019-06-07T03:35:27.600Z,15.65
2019-06-07T03:37:53.355Z,15.59
2019-06-07T03:40:19.343Z,15.60
2019-06-07T03:42:45.363Z,15.69
2019-06-07T03:45:11.383Z,15.74
2019-06-07T03:47:41.407Z,15.68
2019-06-07T03:50:05.556Z,15.65
2019-06-07T03:52:35.031Z,15.60
2019-06-07T03:54:59.490Z,15.65
2019-06-07T03:57:25.508Z,15.63
2019-06-07T03:59:51.479Z,15.53
2019-06-07T04:02:17.468Z,15.63
2019-06-07T04:04:43.568Z,15.51
2019-06-07T04:07:09.636Z,15.68
2019-06-07T04:09:40.209Z,15.55
2019-06-07T04:12:03.807Z,15.58
2019-06-07T04:14:30.935Z,15.80
2019-06-07T04:16:57.766Z,15.81
2019-06-07T04:19:23.796Z,15.90
2019-06-07T04:21:49.784Z,15.97
2019-06-07T04:24:15.846Z,15.98
2019-06-07T04:26:44.003Z,15.74
2019-06-07T04:29:32.373Z,15.78
2019-06-07T04:31:41.888Z,15.59
2019-06-07T04:34:05.752Z,15.59
2019-06-07T04:36:45.696Z,15.70
2019-06-07T04:39:00.812Z,15.65
2019-06-07T04:41:28.668Z,15.68
2019-06-07T04:43:57.300Z,15.81
2019-06-07T04:46:23.540Z,16.07
2019-06-07T04:48:49.617Z,15.88
2019-06-07T04:51:16.157Z,15.78
2019-06-07T04:53:43.267Z,15.75
2019-06-07T04:56:09.576Z,15.77
2019-06-07T04:58:35.808Z,15.72
2019-06-07T05:01:03.616Z,15.67
2019-06-07T05:03:31.293Z,15.72
2019-06-07T05:05:57.820Z,15.61
2019-06-07T05:08:28.476Z,15.65
2019-06-07T05:10:51.712Z,15.55
2019-06-07T05:13:17.698Z,15.63
2019-06-07T05:15:43.745Z,15.62
2019-06-07T05:18:09.728Z,15.63
2019-06-07T05:20:37.870Z,15.68
2019-06-07T05:23:03.646Z,15.58
2019-06-07T05:25:31.749Z,15.60
2019-06-07T05:27:57.613Z,15.66
2019-06-07T05:33:00.176Z,15.70
2019-06-07T05:35:26.444Z,15.67
2019-06-07T05:37:52.418Z,15.75
2019-06-07T05:40:22.316Z,15.87
2019-06-07T05:42:48.376Z,15.77
2019-06-07T05:45:18.216Z,15.83
2019-06-07T05:47:50.386Z,15.71
2019-06-07T05:50:38.339Z,15.74
2019-06-07T05:52:44.311Z,15.78
2019-06-07T05:55:08.174Z,16.00
2019-06-07T05:57:37.664Z,16.14
2019-06-07T06:00:05.484Z,16.15
2019-06-07T06:02:31.478Z,16.25
2019-06-07T06:04:57.485Z,16.28
2019-06-07T06:07:23.467Z,16.24
2019-06-07T06:09:49.544Z,16.21
2019-06-07T06:12:33.467Z,16.17
2019-06-07T06:14:45.032Z,16.24
2019-06-07T06:17:11.541Z,16.35
2019-06-07T06:19:40.699Z,16.36
2019-06-07T06:22:05.532Z,16.27
2019-06-07T06:24:31.714Z,16.11
2019-06-07T06:27:15.302Z,16.15
2019-06-07T06:29:25.843Z,16.39
2019-06-07T06:32:39.447Z,16.44
2019-06-07T06:34:20.008Z,16.44
2019-06-07T06:36:49.749Z,16.52
2019-06-07T06:39:14.020Z,16.56
2019-06-07T06:41:53.745Z,16.58
2019-06-07T06:44:08.151Z,16.56
2019-06-07T06:46:42.162Z,16.69
2019-06-07T06:49:02.544Z,16.62
2019-06-07T06:51:28.574Z,16.70
2019-06-07T06:53:54.566Z,16.85
2019-06-07T06:56:20.680Z,16.95
2019-06-07T06:59:27.247Z,16.99
2019-06-07T07:01:14.607Z,16.87
2019-06-07T07:04:00.201Z,16.98
2019-06-07T07:06:25.078Z,17.03
2019-06-07T07:08:37.183Z,17.02
2019-06-07T07:11:03.175Z,17.00
2019-06-07T07:13:29.197Z,16.90
2019-06-07T07:15:58.113Z,16.80
2019-06-07T07:18:23.125Z,17.04
2019-06-07T07:20:53.375Z,17.09
2019-06-07T07:23:17.358Z,17.10
2019-06-07T07:25:49.450Z,17.17
2019-06-07T07:28:11.888Z,17.15
2019-06-07T07:30:43.057Z,17.07
2019-06-07T07:33:09.268Z,17.18
2019-06-07T07:35:35.283Z,17.11
2019-06-07T07:38:01.300Z,17.03
2019-06-07T07:42:56.749Z,17.06
2019-06-07T07:45:22.907Z,16.95
2019-06-07T07:48:02.096Z,17.11
2019-06-07T07:50:16.928Z,17.03
2019-06-07T07:52:45.151Z,16.76
2019-06-07T07:55:10.887Z,16.93
2019-06-07T07:57:37.033Z,17.10
2019-06-07T08:00:48.158Z,16.98
2019-06-07T08:02:33.145Z,17.16
2019-06-07T08:05:21.743Z,17.19
2019-06-07T08:07:28.375Z,17.08
2019-06-07T08:10:03.402Z,17.15
2019-06-07T08:12:26.364Z,17.23
2019-06-07T08:14:57.487Z,17.21
2019-06-07T08:17:20.295Z,17.28
2019-06-07T08:19:47.616Z,17.46
2019-06-07T08:22:14.148Z,17.47
2019-06-07T08:24:40.374Z,17.49
2019-06-07T08:27:25.145Z,17.28
2019-06-07T08:29:44.767Z,17.28
2019-06-07T08:32:03.020Z,17.35
2019-06-07T08:34:29.320Z,17.50
2019-06-07T08:36:59.167Z,17.65
2019-06-07T08:39:23.276Z,17.67
2019-06-07T08:41:59.823Z,17.76
2019-06-07T08:44:23.831Z,17.84
2019-06-07T08:46:45.208Z,17.84
2019-06-07T08:49:11.204Z,17.82
2019-06-07T08:51:37.309Z,17.73
2019-06-07T08:54:21.781Z,17.83
2019-06-07T08:56:31.737Z,17.84
2019-06-07T08:59:05.542Z,17.79
2019-06-07T09:01:25.673Z,18.08
2019-06-07T09:03:52.066Z,17.73
2019-06-07T09:07:01.021Z,17.62
2019-06-07T09:08:47.534Z,17.82
2019-06-07T09:11:13.643Z,17.81
2019-06-07T09:13:39.723Z,17.66
2019-06-07T09:16:08.710Z,17.68
2019-06-07T09:18:43.124Z,17.63
2019-06-07T09:21:07.747Z,17.63
2019-06-07T09:23:30.537Z,17.63
2019-06-07T09:26:08.032Z,17.67
2019-06-07T09:28:26.617Z,17.72
2019-06-07T09:30:53.093Z,17.81
2019-06-07T09:33:19.356Z,17.88
2019-06-07T09:35:45.473Z,17.84
2019-06-07T09:38:24.210Z,17.81
2019-06-07T09:40:40.575Z,17.93
2019-06-07T09:43:59.135Z,18.02
2019-06-07T09:45:34.565Z,18.07
2019-06-07T09:48:04.949Z,17.90
2019-06-07T09:50:28.562Z,18.12
2019-06-07T09:53:02.785Z,18.32
2019-06-07T09:55:24.715Z,18.29
2019-06-07T09:57:50.628Z,18.27
2019-06-07T10:02:45.024Z,18.37
2019-06-07T10:05:14.341Z,18.34
2019-06-07T10:07:57.630Z,18.28
2019-06-07T10:12:36.589Z,18.13
2019-06-07T10:15:05.284Z,18.20
2019-06-07T10:17:31.457Z,18.25
2019-06-07T10:19:59.989Z,18.23
2019-06-07T10:22:25.370Z,18.23
2019-06-07T10:24:51.340Z,18.41
2019-06-07T10:27:17.345Z,18.56
2019-06-07T10:29:43.324Z,18.48
2019-06-07T10:32:09.416Z,18.89
2019-06-07T10:34:35.405Z,18.72
2019-06-07T10:37:03.342Z,19.02
2019-06-07T10:39:29.361Z,19.22
2019-06-07T10:41:55.336Z,19.36
2019-06-07T10:44:21.315Z,19.32
2019-06-07T10:46:47.330Z,19.08
2019-06-07T10:49:13.313Z,19.30
2019-06-07T10:51:39.400Z,19.33
2019-06-07T10:54:19.578Z,19.25
2019-06-07T10:56:33.870Z,19.38
2019-06-07T10:58:59.919Z,19.25
2019-06-07T11:01:25.913Z,19.28
2019-06-07T11:03:52.028Z,19.31
2019-06-07T11:06:18.033Z,19.28
2019-06-07T11:08:44.328Z,19.54
2019-06-07T11:11:10.549Z,19.57
2019-06-07T11:13:36.545Z,19.63
2019-06-07T11:16:03.046Z,19.83
2019-06-07T11:18:30.368Z,20.43
2019-06-07T11:20:56.359Z,20.90
2019-06-07T11:23:22.386Z,20.70
2019-06-07T11:25:48.368Z,20.65
2019-06-07T11:28:14.756Z,20.30
2019-06-07T11:30:40.894Z,20.61
2019-06-07T11:33:08.369Z,20.87
2019-06-07T11:35:34.510Z,20.48
2019-06-07T11:38:00.650Z,20.26
2019-06-07T11:40:34.885Z,19.98
2019-06-07T11:42:54.728Z,19.73
2019-06-07T11:45:20.901Z,19.80
2019-06-07T11:47:46.979Z,19.63
2019-06-07T11:50:13.753Z,19.54
2019-06-07T11:52:40.035Z,19.60
2019-06-07T11:55:09.009Z,19.63
2019-06-07T11:57:35.346Z,19.72
2019-06-07T12:00:01.467Z,19.87
2019-06-07T12:02:27.655Z,20.01
2019-06-07T12:04:53.664Z,19.75
2019-06-07T12:07:19.952Z,20.15
2019-06-07T12:09:56.127Z,20.63
2019-06-07T12:12:14.566Z,20.90
2019-06-07T12:14:40.677Z,21.28
2019-06-07T12:17:06.696Z,21.28
2019-06-07T12:19:32.744Z,21.49
2019-06-07T12:21:58.869Z,21.91
2019-06-07T12:24:24.999Z,22.05
2019-06-07T12:26:51.131Z,22.14
2019-06-07T12:29:17.390Z,22.56
2019-06-07T12:31:43.406Z,22.51
2019-06-07T12:34:09.422Z,22.36
2019-06-07T12:36:35.569Z,22.60
2019-06-07T12:39:01.673Z,22.91
2019-06-07T12:41:28.604Z,23.07
2019-06-07T12:43:54.864Z,22.90
2019-06-07T12:46:26.347Z,23.50
2019-06-07T12:48:48.871Z,23.62
2019-06-07T12:51:15.224Z,23.92
2019-06-07T12:53:41.346Z,24.17
2019-06-07T12:56:07.381Z,24.26
2019-06-07T12:58:36.302Z,23.85
2019-06-07T13:01:01.238Z,23.66
2019-06-07T13:03:27.236Z,23.24
2019-06-07T13:05:53.490Z,23.54
2019-06-07T13:08:19.788Z,23.44
2019-06-07T13:10:45.865Z,23.86
2019-06-07T13:13:11.988Z,23.42
2019-06-07T13:15:38.072Z,23.29
2019-06-07T13:18:04.196Z,23.81
2019-06-07T13:20:30.266Z,23.66
2019-06-07T13:22:56.245Z,23.53
2019-06-07T13:25:25.269Z,23.16
2019-06-07T13:27:50.659Z,22.83
2019-06-07T13:30:17.154Z,22.98
2019-06-07T13:32:44.678Z,23.37
2019-06-07T13:35:10.897Z,23.00
2019-06-07T13:37:36.904Z,22.72
2019-06-07T13:40:06.393Z,22.44
2019-06-07T13:42:32.500Z,22.38
2019-06-07T13:44:58.537Z,22.01
2019-06-07T13:47:25.370Z,22.26
2019-06-07T13:49:54.947Z,22.62
2019-06-07T13:52:19.415Z,22.87
2019-06-07T13:54:45.445Z,23.26
2019-06-07T13:57:11.432Z,23.77
2019-06-07T13:59:37.423Z,23.96
2019-06-07T14:02:03.459Z,23.76
2019-06-07T14:04:29.485Z,24.23
2019-06-07T14:06:55.506Z,24.27
2019-06-07T14:09:21.594Z,24.13
2019-06-07T14:11:50.855Z,24.19
2019-06-07T14:14:15.853Z,24.17
2019-06-07T14:16:41.944Z,23.97
2019-06-07T14:19:07.938Z,23.94
2019-06-07T14:21:33.949Z,23.69
2019-06-07T14:23:59.986Z,23.71
2019-06-07T14:26:27.248Z,23.60
2019-06-07T14:28:53.531Z,23.69
2019-06-07T14:31:19.571Z,23.38
2019-06-07T14:33:45.599Z,23.72
2019-06-07T14:36:11.642Z,23.65
2019-06-07T14:38:38.067Z,23.61
2019-06-07T14:41:04.131Z,23.60
2019-06-07T14:43:31.607Z,23.57
2019-06-07T14:45:57.820Z,23.51
2019-06-07T14:48:23.866Z,23.31
2019-06-07T14:50:49.966Z,23.28
2019-06-07T14:53:16.011Z,23.37
2019-06-07T14:55:42.072Z,23.31
2019-06-07T14:58:08.159Z,23.29
2019-06-07T15:00:42.259Z,23.58
2019-06-07T15:03:08.713Z,23.57
2019-06-07T15:05:35.645Z,23.49
2019-06-07T15:08:02.005Z,23.32
2019-06-07T15:10:28.676Z,23.24
2019-06-07T15:12:54.828Z,23.32
2019-06-07T15:15:20.805Z,23.02
2019-06-07T15:17:46.770Z,22.72
2019-06-07T15:20:12.924Z,22.73
2019-06-07T15:22:39.172Z,22.51
2019-06-07T15:25:05.724Z,22.42
2019-06-07T15:27:31.717Z,22.78
2019-06-07T15:29:57.788Z,22.82
2019-06-07T15:32:23.805Z,22.97
2019-06-07T15:34:49.778Z,22.60
2019-06-07T15:37:15.785Z,22.40
2019-06-07T15:39:41.835Z,22.27
2019-06-07T15:42:07.945Z,22.39
2019-06-07T15:44:35.339Z,22.47
2019-06-07T15:47:01.550Z,22.55
2019-06-07T15:49:27.656Z,22.81
2019-06-07T15:51:53.730Z,22.68
2019-06-07T15:54:19.833Z,22.69
2019-06-07T15:56:45.878Z,22.50
2019-06-07T15:59:12.038Z,22.38
2019-06-07T16:01:39.532Z,22.40
2019-06-07T16:04:06.072Z,22.61
2019-06-07T16:06:32.288Z,22.67
2019-06-07T16:08:58.292Z,22.71
2019-06-07T16:11:27.094Z,22.53
2019-06-07T16:13:53.088Z,22.54
2019-06-07T16:16:19.342Z,22.41
2019-06-07T16:18:47.233Z,22.49
2019-06-07T16:21:13.355Z,22.49
2019-06-07T16:23:39.841Z,22.51
2019-06-07T16:26:06.052Z,22.82
2019-06-07T16:28:32.065Z,22.83
2019-06-07T16:30:58.056Z,22.72
2019-06-07T16:33:24.108Z,22.72
2019-06-07T16:35:50.117Z,22.60
2019-06-07T16:38:16.149Z,22.52
2019-06-07T16:40:42.448Z,22.48
2019-06-07T16:43:16.574Z,22.62
2019-06-07T16:45:36.543Z,22.65
2019-06-07T16:48:03.191Z,22.64
2019-06-07T16:50:29.176Z,22.47
2019-06-07T16:52:55.183Z,22.52
2019-06-07T16:55:21.268Z,22.61
2019-06-07T16:57:47.365Z,22.60
2019-06-07T17:00:13.890Z,22.64
2019-06-07T17:02:40.258Z,22.60
2019-06-07T17:05:07.937Z,22.66
2019-06-07T17:07:34.335Z,22.67
2019-06-07T17:10:00.647Z,22.64
2019-06-07T17:12:26.637Z,22.68
2019-06-07T17:14:52.613Z,22.61
2019-06-07T17:17:18.629Z,22.49
2019-06-07T17:19:44.994Z,22.60
2019-06-07T17:22:11.113Z,22.55
2019-06-07T17:24:37.280Z,22.69
2019-06-07T17:27:03.378Z,22.68
2019-06-07T17:29:29.390Z,22.76
2019-06-07T17:31:55.369Z,22.76
2019-06-07T17:34:21.373Z,22.64
2019-06-07T17:36:48.579Z,22.61
2019-06-07T17:39:14.795Z,22.68
2019-06-07T17:41:52.525Z,22.85
2019-06-07T17:44:08.830Z,22.72
2019-06-07T17:46:34.954Z,22.68
2019-06-07T17:49:00.940Z,22.80
2019-06-07T17:51:27.048Z,22.66
2019-06-07T17:53:53.019Z,22.65
2019-06-07T17:56:19.031Z,22.57
2019-06-07T17:58:46.139Z,22.58
2019-06-07T18:01:12.541Z,22.58
2019-06-07T18:03:38.582Z,22.57
2019-06-07T18:06:04.587Z,22.52
2019-06-07T18:08:30.885Z,22.63
2019-06-07T18:10:56.901Z,22.55
2019-06-07T18:13:22.883Z,22.51
2019-06-07T18:15:53.849Z,22.42
2019-06-07T18:18:16.865Z,22.41
2019-06-07T18:20:42.958Z,22.42
2019-06-07T18:23:09.572Z,22.37
2019-06-07T18:25:35.805Z,22.25
2019-06-07T18:28:02.104Z,22.28
2019-06-07T18:30:28.195Z,22.21
2019-06-07T18:32:55.068Z,22.07
2019-06-07T18:35:21.208Z,22.19
2019-06-07T18:37:47.227Z,22.18
2019-06-07T18:40:14.012Z,22.26
2019-06-07T18:42:40.034Z,22.20
2019-06-07T18:45:06.213Z,22.09
2019-06-07T18:47:32.262Z,21.94
2019-06-07T18:49:58.603Z,22.05
2019-06-07T18:52:26.714Z,21.98
2019-06-07T18:54:53.069Z,21.96
2019-06-07T18:57:19.278Z,21.98
2019-06-07T18:59:45.384Z,21.90
2019-06-07T19:02:11.392Z,21.92
2019-06-07T19:04:37.501Z,21.80
2019-06-07T19:07:03.521Z,21.85
2019-06-07T19:09:29.704Z,21.69
2019-06-07T19:11:56.900Z,21.64
2019-06-07T19:14:36.266Z,21.62
2019-06-07T19:16:52.294Z,21.49
2019-06-07T19:19:18.941Z,21.36
2019-06-07T19:21:45.100Z,21.24
2019-06-07T19:24:11.197Z,21.22
2019-06-07T19:26:37.239Z,21.14
2019-06-07T19:29:03.277Z,21.16
2019-06-07T19:31:29.306Z,21.03
2019-06-07T19:33:55.555Z,21.00
2019-06-07T19:36:21.578Z,20.88
2019-06-07T19:38:47.716Z,20.81
2019-06-07T19:41:19.562Z,20.68
2019-06-07T19:43:41.922Z,20.68
2019-06-07T19:46:07.908Z,20.55
2019-06-07T19:48:33.973Z,20.30
2019-06-07T19:51:03.106Z,20.22
2019-06-07T19:53:29.270Z,20.11
2019-06-07T19:55:55.405Z,20.01
2019-06-07T19:58:21.426Z,19.91
2019-06-07T20:00:47.453Z,19.90
2019-06-07T20:03:13.509Z,19.63
2019-06-07T20:05:39.609Z,19.48
2019-06-07T20:08:05.628Z,19.56
2019-06-07T20:10:31.606Z,19.45
2019-06-07T20:13:00.873Z,19.46
2019-06-07T20:15:29.454Z,19.51
2019-06-07T20:17:55.191Z,19.38
2019-06-07T20:20:23.891Z,19.31
2019-06-07T20:22:49.420Z,19.30
2019-06-07T20:25:16.162Z,19.36
2019-06-07T20:27:42.493Z,19.28
2019-06-07T20:30:10.679Z,19.26
2019-06-07T20:32:36.665Z,19.22
2019-06-07T20:35:04.095Z,19.27
2019-06-07T20:37:30.096Z,19.17
2019-06-07T20:39:57.039Z,19.01
2019-06-07T20:42:23.202Z,19.07
2019-06-07T20:44:49.422Z,18.96
2019-06-07T20:47:15.464Z,18.99
2019-06-07T20:49:41.445Z,18.99
2019-06-07T20:52:08.636Z,18.86
2019-06-07T20:54:34.759Z,18.85
2019-06-07T20:57:00.865Z,18.81
2019-06-07T20:59:26.844Z,18.67
2019-06-07T21:01:52.857Z,18.73
2019-06-07T21:04:18.876Z,18.80
2019-06-07T21:06:44.884Z,18.68
2019-06-07T21:09:10.935Z,18.58
2019-06-07T21:11:36.953Z,18.63
2019-06-07T21:14:04.100Z,18.57
2019-06-07T21:16:30.265Z,18.47
2019-06-07T21:18:56.252Z,18.41
2019-06-07T21:21:22.260Z,18.44
2019-06-07T21:23:48.280Z,18.43
2019-06-07T21:26:14.353Z,18.26
2019-06-07T21:28:40.361Z,18.15
2019-06-07T21:31:06.607Z,18.17
2019-06-07T21:33:32.748Z,18.33
2019-06-07T21:35:58.833Z,18.23
2019-06-07T21:38:24.849Z,18.24
2019-06-07T21:40:50.917Z,18.19
2019-06-07T21:43:16.925Z,18.09
2019-06-07T21:45:42.969Z,18.06
2019-06-07T21:48:08.995Z,17.88
2019-06-07T21:50:34.970Z,17.84
2019-06-07T21:53:02.203Z,17.92
2019-06-07T21:55:28.564Z,17.95
2019-06-07T21:57:54.868Z,17.91
2019-06-07T22:00:25.863Z,17.89
2019-06-07T22:02:51.948Z,17.95
2019-06-07T22:05:18.120Z,17.89
2019-06-07T22:07:44.100Z,17.79
2019-06-07T22:10:10.372Z,17.74
2019-06-07T22:12:36.498Z,17.74
2019-06-07T22:15:27.136Z,17.80
2019-06-07T22:17:33.318Z,17.68
2019-06-07T22:19:59.332Z,17.66
2019-06-07T22:22:25.305Z,17.75
2019-06-07T22:24:51.307Z,17.59
2019-06-07T22:27:17.731Z,17.65
2019-06-07T22:29:43.899Z,17.62
2019-06-07T22:32:10.910Z,17.63
2019-06-07T22:34:37.080Z,17.55
2019-06-07T22:37:03.336Z,17.47
2019-06-07T22:39:29.348Z,17.55
2019-06-07T22:41:55.320Z,17.54
2019-06-07T22:44:21.336Z,17.64
2019-06-07T22:46:47.328Z,17.53
2019-06-07T22:49:13.403Z,17.58
2019-06-07T22:51:39.517Z,17.59
2019-06-07T22:54:05.543Z,17.44
2019-06-07T22:56:39.308Z,17.40
2019-06-07T22:59:05.296Z,17.37
2019-06-07T23:01:31.325Z,17.34
2019-06-07T23:03:57.295Z,17.25
2019-06-07T23:06:23.294Z,17.31
2019-06-07T23:08:49.404Z,17.25
2019-06-07T23:11:15.424Z,17.20
2019-06-07T23:13:41.389Z,17.16
2019-06-07T23:16:07.435Z,17.15
2019-06-07T23:18:33.449Z,17.07
2019-06-07T23:20:59.445Z,17.06
2019-06-07T23:23:25.425Z,17.09
2019-06-07T23:25:51.504Z,17.13
2019-06-07T23:28:18.739Z,17.07
2019-06-07T23:30:44.821Z,17.15
2019-06-07T23:33:10.935Z,17.09
2019-06-07T23:35:37.065Z,17.02
2019-06-07T23:38:03.120Z,17.05
2019-06-07T23:40:29.175Z,17.03
2019-06-07T23:42:55.184Z,17.01
2019-06-07T23:45:21.761Z,17.05
2019-06-07T23:47:47.881Z,17.04
2019-06-07T23:50:13.980Z,16.95
2019-06-07T23:52:39.976Z,16.98
2019-06-07T23:55:06.132Z,17.00
2019-06-07T23:57:32.205Z,16.98
2019-06-07T23:59:58.169Z,17.05
